createdAt,value
2024-05-09T00:01:26.605Z,10.42
2024-05-09T00:04:37.104Z,10.29
2024-05-09T00:07:50.152Z,10.30
2024-05-09T00:11:00.668Z,10.28
2024-05-09T00:14:11.442Z,10.28
2024-05-09T00:17:22.144Z,10.20
2024-05-09T00:20:37.914Z,10.18
2024-05-09T00:23:53.530Z,10.24
2024-05-09T00:27:04.238Z,10.27
2024-05-09T00:30:21.458Z,10.35
2024-05-09T00:33:39.499Z,10.31
2024-05-09T00:36:50.095Z,10.26
2024-05-09T00:40:03.627Z,10.21
2024-05-09T00:43:15.263Z,10.30
2024-05-09T00:46:26.151Z,10.36
2024-05-09T00:49:37.231Z,10.37
2024-05-09T00:52:48.993Z,10.41
2024-05-09T00:56:03.279Z,10.39
2024-05-09T00:59:14.593Z,10.38
2024-05-09T01:02:26.011Z,10.27
2024-05-09T01:05:36.420Z,10.37
2024-05-09T01:08:46.999Z,10.46
2024-05-09T01:12:00.088Z,10.43
2024-05-09T01:15:11.504Z,10.47
2024-05-09T01:18:21.933Z,10.28
2024-05-09T01:21:33.556Z,10.23
2024-05-09T01:24:46.604Z,10.23
2024-05-09T01:27:56.875Z,10.25
2024-05-09T01:31:07.546Z,10.32
2024-05-09T01:38:32.590Z,10.29
2024-05-09T01:41:45.571Z,10.34
2024-05-09T01:44:55.816Z,10.33
2024-05-09T01:48:06.521Z,10.45
2024-05-09T01:51:17.237Z,10.38
2024-05-09T01:54:27.582Z,10.28
2024-05-09T01:57:40.589Z,10.39
2024-05-09T02:00:51.873Z,10.38
2024-05-09T02:07:30.118Z,10.42
2024-05-09T02:10:40.560Z,10.44
2024-05-09T02:13:54.380Z,10.50
2024-05-09T02:17:04.861Z,10.46
2024-05-09T02:20:22.604Z,10.53
2024-05-09T02:23:40.015Z,10.40
2024-05-09T02:26:50.325Z,10.31
2024-05-09T02:30:09.896Z,10.47
2024-05-09T02:33:25.782Z,10.41
2024-05-09T02:36:36.332Z,10.42
2024-05-09T02:39:44.044Z,10.46
2024-05-09T02:42:54.370Z,10.58
2024-05-09T02:46:04.993Z,10.55
2024-05-09T02:49:15.968Z,10.50
2024-05-09T02:52:23.751Z,10.51
2024-05-09T02:55:34.064Z,10.54
2024-05-09T02:58:41.798Z,10.54
2024-05-09T03:01:54.818Z,10.51
2024-05-09T03:05:02.720Z,10.45
2024-05-09T03:08:13.790Z,10.48
2024-05-09T03:11:22.279Z,10.55
2024-05-09T03:14:32.700Z,10.47
2024-05-09T03:17:46.543Z,10.52
2024-05-09T03:20:54.532Z,10.50
2024-05-09T03:24:04.935Z,10.51
2024-05-09T03:27:12.915Z,10.53
2024-05-09T03:30:31.166Z,10.52
2024-05-09T03:33:53.048Z,10.52
2024-05-09T03:37:03.675Z,10.55
2024-05-09T03:40:21.049Z,10.57
2024-05-09T03:43:36.540Z,10.53
2024-05-09T03:46:46.976Z,10.54
2024-05-09T03:49:57.347Z,10.56
2024-05-09T03:53:08.151Z,10.54
2024-05-09T03:56:18.600Z,10.60
2024-05-09T03:59:26.524Z,10.63
2024-05-09T04:02:37.158Z,10.58
2024-05-09T04:05:47.838Z,10.52
2024-05-09T04:08:58.303Z,10.57
2024-05-09T04:12:11.309Z,10.51
2024-05-09T04:15:19.095Z,10.46
2024-05-09T04:18:30.135Z,10.41
2024-05-09T04:21:41.210Z,10.33
2024-05-09T04:24:52.842Z,10.38
2024-05-09T04:28:00.679Z,10.40
2024-05-09T04:31:11.013Z,10.41
2024-05-09T04:34:18.938Z,10.46
2024-05-09T04:37:33.143Z,10.47
2024-05-09T04:40:40.908Z,10.46
2024-05-09T04:43:52.771Z,10.52
2024-05-09T04:47:01.707Z,10.51
2024-05-09T04:50:17.698Z,10.55
2024-05-09T04:53:35.103Z,10.59
2024-05-09T04:56:45.828Z,10.59
2024-05-09T04:59:53.679Z,10.67
2024-05-09T05:03:06.901Z,10.73
2024-05-09T05:06:15.778Z,10.75
2024-05-09T05:09:29.022Z,10.76
2024-05-09T05:12:55.560Z,10.79
2024-05-09T05:16:06.086Z,10.76
2024-05-09T05:19:16.955Z,10.82
2024-05-09T05:22:27.970Z,10.87
2024-05-09T05:25:38.320Z,10.80
2024-05-09T05:28:51.075Z,10.83
2024-05-09T05:31:58.938Z,10.81
2024-05-09T05:35:09.481Z,10.77
2024-05-09T05:38:23.740Z,10.82
2024-05-09T05:41:36.720Z,11.02
2024-05-09T05:44:47.059Z,11.18
2024-05-09T05:47:55.261Z,11.22
2024-05-09T05:51:07.717Z,11.28
2024-05-09T05:54:15.573Z,11.19
2024-05-09T05:57:31.015Z,11.44
2024-05-09T06:00:43.233Z,11.57
2024-05-09T06:03:53.957Z,11.87
2024-05-09T06:07:01.793Z,11.90
2024-05-09T06:10:17.668Z,11.99
2024-05-09T06:13:32.436Z,12.53
2024-05-09T06:16:43.554Z,12.74
2024-05-09T06:19:51.507Z,12.64
2024-05-09T06:23:03.059Z,12.76
2024-05-09T06:26:14.537Z,12.39
2024-05-09T06:29:25.054Z,12.41
2024-05-09T06:32:35.582Z,12.42
2024-05-09T06:35:43.792Z,12.26
2024-05-09T06:38:54.282Z,12.82
2024-05-09T06:42:02.000Z,12.89
2024-05-09T06:45:15.760Z,13.51
2024-05-09T06:48:23.855Z,13.10
2024-05-09T06:51:38.513Z,13.09
2024-05-09T06:54:48.797Z,13.02
2024-05-09T06:57:57.700Z,12.90
2024-05-09T07:01:10.715Z,13.28
2024-05-09T07:04:21.229Z,13.07
2024-05-09T07:07:31.647Z,13.03
2024-05-09T07:10:39.521Z,13.09
2024-05-09T07:13:50.183Z,13.58
2024-05-09T07:17:03.473Z,13.87
2024-05-09T07:20:16.603Z,13.64
2024-05-09T07:23:33.825Z,14.07
2024-05-09T07:26:41.659Z,14.45
2024-05-09T07:29:51.999Z,14.29
2024-05-09T07:33:05.192Z,14.68
2024-05-09T07:36:15.873Z,15.27
2024-05-09T07:39:24.659Z,15.23
2024-05-09T07:42:35.127Z,14.67
2024-05-09T07:45:51.284Z,15.95
2024-05-09T07:53:30.352Z,14.94
2024-05-09T07:55:49.340Z,15.72
2024-05-09T07:58:59.750Z,16.05
2024-05-09T08:02:07.873Z,15.26
2024-05-09T08:05:21.088Z,14.19
2024-05-09T08:08:31.652Z,14.31
2024-05-09T08:11:43.073Z,15.32
2024-05-09T08:14:55.725Z,14.96
2024-05-09T08:18:07.645Z,15.50
2024-05-09T08:21:21.672Z,15.09
2024-05-09T08:24:34.474Z,14.57
2024-05-09T08:27:42.863Z,14.50
2024-05-09T08:30:54.230Z,15.79
2024-05-09T08:34:05.738Z,17.81
2024-05-09T08:37:22.328Z,19.99
2024-05-09T08:40:37.199Z,18.44
2024-05-09T08:43:49.551Z,16.73
2024-05-09T08:46:57.367Z,16.33
2024-05-09T08:50:23.907Z,16.46
2024-05-09T08:53:44.259Z,16.88
2024-05-09T08:56:55.456Z,16.22
2024-05-09T09:00:10.017Z,16.06
2024-05-09T09:03:29.920Z,16.45
2024-05-09T09:06:38.873Z,17.27
2024-05-09T09:09:54.704Z,18.09
2024-05-09T09:13:09.892Z,17.75
2024-05-09T09:16:20.601Z,17.45
2024-05-09T09:19:30.169Z,18.55
2024-05-09T09:22:41.899Z,19.58
2024-05-09T09:25:52.937Z,20.54
2024-05-09T09:29:04.611Z,20.62
2024-05-09T09:32:15.859Z,19.32
2024-05-09T09:35:23.820Z,19.39
2024-05-09T09:38:39.168Z,17.89
2024-05-09T09:41:50.469Z,17.05
2024-05-09T09:45:05.065Z,17.35
2024-05-09T09:48:16.605Z,16.79
2024-05-09T09:51:28.262Z,16.65
2024-05-09T09:54:40.173Z,17.25
2024-05-09T09:57:50.630Z,17.15
2024-05-09T10:01:01.155Z,16.94
2024-05-09T10:04:12.941Z,17.05
2024-05-09T10:07:27.703Z,16.42
2024-05-09T10:10:36.522Z,17.15
2024-05-09T10:13:50.802Z,16.92
2024-05-09T10:17:07.853Z,17.32
2024-05-09T10:20:21.862Z,17.16
2024-05-09T10:23:36.558Z,17.00
2024-05-09T10:26:53.487Z,16.83
2024-05-09T10:30:14.380Z,17.03
2024-05-09T10:33:28.225Z,17.05
2024-05-09T10:36:43.228Z,17.02
2024-05-09T10:39:56.008Z,17.33
2024-05-09T10:43:06.488Z,17.34
2024-05-09T10:46:20.142Z,17.04
2024-05-09T10:49:29.941Z,18.19
2024-05-09T10:52:40.051Z,17.41
2024-05-09T10:55:56.749Z,17.98
2024-05-09T10:59:06.938Z,18.52
2024-05-09T11:02:18.841Z,18.89
2024-05-09T11:05:30.769Z,17.86
2024-05-09T11:08:41.925Z,18.42
2024-05-09T11:11:49.757Z,18.94
2024-05-09T11:15:00.026Z,17.92
2024-05-09T11:18:24.977Z,17.92
2024-05-09T11:21:36.212Z,17.46
2024-05-09T11:24:47.441Z,17.48
2024-05-09T11:27:59.179Z,18.13
2024-05-09T11:31:11.242Z,18.42
2024-05-09T11:34:23.956Z,19.24
2024-05-09T11:37:36.834Z,18.52
2024-05-09T11:40:44.672Z,17.21
2024-05-09T11:43:54.663Z,17.64
2024-05-09T11:47:04.888Z,18.35
2024-05-09T11:50:26.808Z,18.82
2024-05-09T11:53:37.805Z,18.94
2024-05-09T11:56:48.030Z,17.47
2024-05-09T11:59:57.389Z,17.15
2024-05-09T12:03:08.406Z,17.77
2024-05-09T12:06:18.627Z,17.83
2024-05-09T12:09:28.792Z,17.42
2024-05-09T12:12:37.414Z,17.93
2024-05-09T12:15:50.358Z,18.45
2024-05-09T12:18:58.851Z,18.45
2024-05-09T12:22:11.676Z,17.72
2024-05-09T12:25:19.477Z,18.41
2024-05-09T12:28:29.959Z,17.70
2024-05-09T12:31:37.667Z,17.38
2024-05-09T12:34:47.915Z,17.52
2024-05-09T12:37:58.135Z,18.21
2024-05-09T12:41:09.194Z,18.34
2024-05-09T12:44:19.495Z,17.32
2024-05-09T12:47:27.233Z,17.05
2024-05-09T12:50:38.496Z,17.31
2024-05-09T12:53:48.697Z,18.22
2024-05-09T12:56:58.738Z,18.07
2024-05-09T13:00:14.186Z,18.54
2024-05-09T13:03:30.499Z,18.28
2024-05-09T13:06:38.114Z,18.65
2024-05-09T13:09:50.952Z,18.27
2024-05-09T13:12:58.488Z,17.94
2024-05-09T13:16:09.693Z,17.62
2024-05-09T13:19:17.447Z,17.18
2024-05-09T13:22:27.500Z,17.67
2024-05-09T13:25:38.253Z,17.07
2024-05-09T13:28:48.681Z,17.73
2024-05-09T13:31:59.122Z,18.40
2024-05-09T13:35:07.103Z,17.29
2024-05-09T13:38:17.305Z,17.18
2024-05-09T13:41:30.105Z,17.00
2024-05-09T13:44:37.886Z,17.67
2024-05-09T13:47:48.721Z,17.85
2024-05-09T13:50:59.262Z,17.74
2024-05-09T13:54:09.904Z,18.07
2024-05-09T13:57:20.723Z,17.70
2024-05-09T14:00:42.681Z,17.69
2024-05-09T14:03:55.102Z,17.12
2024-05-09T14:07:05.950Z,17.41
2024-05-09T14:10:22.620Z,17.43
2024-05-09T14:13:38.841Z,17.85
2024-05-09T14:16:46.598Z,18.65
2024-05-09T14:20:04.788Z,18.98
2024-05-09T14:23:12.379Z,18.65
2024-05-09T14:26:23.544Z,17.69
2024-05-09T14:29:35.369Z,16.91
2024-05-09T14:32:45.858Z,17.01
2024-05-09T14:35:53.962Z,17.06
2024-05-09T14:39:04.183Z,16.99
2024-05-09T14:42:11.882Z,17.03
2024-05-09T14:45:24.879Z,16.89
2024-05-09T14:48:35.968Z,16.91
2024-05-09T14:51:50.549Z,17.11
2024-05-09T14:55:00.716Z,17.32
2024-05-09T14:58:13.316Z,17.34
2024-05-09T15:01:24.969Z,17.59
2024-05-09T15:04:35.362Z,17.76
2024-05-09T15:07:47.610Z,17.93
2024-05-09T15:10:57.901Z,18.29
2024-05-09T15:14:05.643Z,18.42
2024-05-09T15:17:19.395Z,18.63
2024-05-09T15:20:34.709Z,18.51
2024-05-09T15:23:44.239Z,18.32
2024-05-09T15:26:54.576Z,19.01
2024-05-09T15:30:05.625Z,18.93
2024-05-09T15:33:21.910Z,19.06
2024-05-09T15:36:32.309Z,18.88
2024-05-09T15:39:40.510Z,18.83
2024-05-09T15:42:51.690Z,18.89
2024-05-09T15:45:59.454Z,18.19
2024-05-09T15:49:12.888Z,18.00
2024-05-09T15:52:20.549Z,17.54
2024-05-09T15:55:34.422Z,17.46
2024-05-09T15:58:44.960Z,17.61
2024-05-09T16:01:55.692Z,18.00
2024-05-09T16:05:06.660Z,17.70
2024-05-09T16:08:17.983Z,17.51
2024-05-09T16:11:27.965Z,17.72
2024-05-09T16:14:35.492Z,17.58
2024-05-09T16:17:45.745Z,17.32
2024-05-09T16:21:00.238Z,17.04
2024-05-09T16:24:10.557Z,16.79
2024-05-09T16:27:19.194Z,16.59
2024-05-09T16:30:34.800Z,16.50
2024-05-09T16:33:46.251Z,16.72
2024-05-09T16:36:59.309Z,16.46
2024-05-09T16:40:21.770Z,16.50
2024-05-09T16:43:39.837Z,16.53
2024-05-09T16:46:49.951Z,16.72
2024-05-09T16:49:57.619Z,16.83
2024-05-09T16:53:10.291Z,17.01
2024-05-09T16:56:18.299Z,16.83
2024-05-09T16:59:28.973Z,16.92
2024-05-09T17:02:40.090Z,16.91
2024-05-09T17:05:51.199Z,16.65
2024-05-09T17:09:08.644Z,16.81
2024-05-09T17:12:22.161Z,16.61
2024-05-09T17:15:32.640Z,16.70
2024-05-09T17:18:43.491Z,16.82
2024-05-09T17:21:54.081Z,17.01
2024-05-09T17:25:07.583Z,17.09
2024-05-09T17:28:15.271Z,17.15
2024-05-09T17:31:26.073Z,17.07
2024-05-09T17:34:34.657Z,17.12
2024-05-09T17:37:45.230Z,17.12
2024-05-09T17:40:55.656Z,16.72
2024-05-09T17:44:09.712Z,16.63
2024-05-09T17:47:18.185Z,16.62
2024-05-09T17:50:35.227Z,16.47
2024-05-09T17:53:45.244Z,16.36
2024-05-09T17:56:58.927Z,16.13
2024-05-09T18:00:11.616Z,15.87
2024-05-09T18:03:26.194Z,15.53
2024-05-09T18:06:34.319Z,15.25
2024-05-09T18:09:44.897Z,14.93
2024-05-09T18:12:57.906Z,14.65
2024-05-09T18:16:06.843Z,14.38
2024-05-09T18:19:18.500Z,14.13
2024-05-09T18:22:29.343Z,13.91
2024-05-09T18:25:37.587Z,13.74
2024-05-09T18:28:50.943Z,13.52
2024-05-09T18:31:59.271Z,13.24
2024-05-09T18:35:10.178Z,13.04
2024-05-09T18:38:18.664Z,12.84
2024-05-09T18:41:30.058Z,12.66
2024-05-09T18:44:40.416Z,12.53
2024-05-09T18:47:50.819Z,12.36
2024-05-09T18:50:58.765Z,12.17
2024-05-09T18:54:09.216Z,12.02
2024-05-09T18:57:19.584Z,11.88
2024-05-09T19:00:35.736Z,11.75
2024-05-09T19:03:49.100Z,11.63
2024-05-09T19:06:56.737Z,11.53
2024-05-09T19:10:14.454Z,11.42
2024-05-09T19:13:28.421Z,11.36
2024-05-09T19:16:38.646Z,11.24
2024-05-09T19:19:49.311Z,11.18
2024-05-09T19:22:56.829Z,11.04
2024-05-09T19:26:08.559Z,10.93
2024-05-09T19:29:16.037Z,10.85
2024-05-09T19:32:29.340Z,10.90
2024-05-09T19:35:36.931Z,10.74
2024-05-09T19:38:48.325Z,10.62
2024-05-09T19:41:58.461Z,10.52
2024-05-09T19:45:07.667Z,10.39
2024-05-09T19:48:21.063Z,10.36
2024-05-09T19:51:28.940Z,10.31
2024-05-09T19:54:38.994Z,10.22
2024-05-09T19:57:46.621Z,10.15
2024-05-09T20:00:56.780Z,10.12
2024-05-09T20:04:07.217Z,10.02
2024-05-09T20:07:17.591Z,9.90
2024-05-09T20:10:31.411Z,9.83
2024-05-09T20:13:43.723Z,9.78
2024-05-09T20:16:51.202Z,9.64
2024-05-09T20:20:07.328Z,9.57
2024-05-09T20:23:15.157Z,9.58
2024-05-09T20:26:28.627Z,9.47
2024-05-09T20:29:37.390Z,9.42
2024-05-09T20:32:47.797Z,9.39
2024-05-09T20:36:02.367Z,9.35
2024-05-09T20:39:12.890Z,9.30
2024-05-09T20:42:20.632Z,9.22
2024-05-09T20:45:31.416Z,9.19
2024-05-09T20:48:39.393Z,9.13
2024-05-09T20:51:52.672Z,9.03
2024-05-09T20:55:00.542Z,8.96
2024-05-09T20:58:11.983Z,8.93
2024-05-09T21:01:19.721Z,8.92
2024-05-09T21:04:30.678Z,8.88
2024-05-09T21:07:41.500Z,8.88
2024-05-09T21:10:52.749Z,8.75
2024-05-09T21:14:01.408Z,8.66
2024-05-09T21:17:11.718Z,8.65
2024-05-09T21:20:24.300Z,8.62
2024-05-09T21:23:43.040Z,8.54
2024-05-09T21:26:51.036Z,8.49
2024-05-09T21:30:01.060Z,8.43
2024-05-09T21:33:10.390Z,8.33
2024-05-09T21:36:21.855Z,8.19
2024-05-09T21:39:32.675Z,8.04
2024-05-09T21:42:42.761Z,8.01
2024-05-09T21:45:52.871Z,7.97
2024-05-09T21:49:00.448Z,7.95
2024-05-09T21:52:10.398Z,8.01
2024-05-09T21:55:20.612Z,7.95
2024-05-09T21:58:30.555Z,7.95
2024-05-09T22:01:38.439Z,7.96
2024-05-09T22:04:48.736Z,7.94
2024-05-09T22:07:57.062Z,7.99
2024-05-09T22:11:10.090Z,7.97
2024-05-09T22:14:21.188Z,7.85
2024-05-09T22:17:28.621Z,7.76
2024-05-09T22:20:43.670Z,7.70
2024-05-09T22:23:55.642Z,7.63
2024-05-09T22:27:08.909Z,7.58
2024-05-09T22:30:23.783Z,7.54
2024-05-09T22:33:37.964Z,7.48
2024-05-09T22:36:45.841Z,7.48
2024-05-09T22:39:55.976Z,7.39
2024-05-09T22:43:06.363Z,7.39
2024-05-09T22:46:16.626Z,7.41
2024-05-09T22:49:26.635Z,7.37
2024-05-09T22:52:34.064Z,7.38
2024-05-09T22:55:44.515Z,7.32
2024-05-09T22:58:54.623Z,7.29
2024-05-09T23:02:07.743Z,7.26
2024-05-09T23:05:15.520Z,7.18
2024-05-09T23:08:25.736Z,7.16
2024-05-09T23:11:33.140Z,7.09
2024-05-09T23:14:46.699Z,7.00
2024-05-09T23:17:57.297Z,6.98
2024-05-09T23:21:08.620Z,6.92
2024-05-09T23:24:18.632Z,6.95
2024-05-09T23:27:26.267Z,6.93
2024-05-09T23:30:40.785Z,6.89
2024-05-09T23:33:49.505Z,6.94
2024-05-09T23:36:59.756Z,6.86
2024-05-09T23:40:09.730Z,6.84
2024-05-09T23:43:19.977Z,6.88
2024-05-09T23:46:30.099Z,6.81
2024-05-09T23:49:40.198Z,6.78
2024-05-09T23:52:47.641Z,6.73
2024-05-09T23:55:58.138Z,6.75
2024-05-09T23:59:08.787Z,6.65
